<?xml version="1.0" encoding="UTF-8" standalone="no" ?>
<gpx xmlns="http://www.topografix.com/GPX/1/1" xmlns:xsi="http://www.w3.org/2001/XMLSchema-instance" xsi:schemaLocation="http://www.topografix.com/GPX/1/1 http://www.topografix.com/GPX/1/1/gpx.xsd" version="1.1" creator="VisuGPX - https://www.visugpx.com">
  <metadata>
    <name>Géorgie-Azerbaïdjan - J45</name>
    <desc><![CDATA[Dommage que les Géorgiens soient si dangereux au volant...]]></desc>
  </metadata>
  <trk>
    <name><![CDATA[Géorgie-Azerbaïdjan - J45_1]]></name>
    <trkseg>
      <trkpt lat="41.92237" lon="45.4667">
        <ele>439.7</ele>
        <time>2018-07-16T03:28:14.000Z</time>
      </trkpt>
      <trkpt lat="41.92194" lon="45.47078">
        <ele>706.5</ele>
        <time>2018-07-16T03:29:15.000Z</time>
      </trkpt>
      <trkpt lat="41.92134" lon="45.473">
        <ele>710.1</ele>
        <time>2018-07-16T03:30:16.000Z</time>
      </trkpt>
      <trkpt lat="41.92116" lon="45.47504">
        <ele>711.4</ele>
        <time>2018-07-16T03:31:17.000Z</time>
      </trkpt>
      <trkpt lat="41.92089" lon="45.47684">
        <ele>708.4</ele>
        <time>2018-07-16T03:33:08.000Z</time>
      </trkpt>
      <trkpt lat="41.91991" lon="45.48002">
        <ele>701</ele>
        <time>2018-07-16T03:34:09.000Z</time>
      </trkpt>
      <trkpt lat="41.91815" lon="45.48212">
        <ele>691.3</ele>
        <time>2018-07-16T03:35:10.000Z</time>
      </trkpt>
      <trkpt lat="41.91866" lon="45.48433">
        <ele>684.8</ele>
        <time>2018-07-16T03:36:11.000Z</time>
      </trkpt>
      <trkpt lat="41.91871" lon="45.48917">
        <ele>680.6</ele>
        <time>2018-07-16T03:37:12.000Z</time>
      </trkpt>
      <trkpt lat="41.91888" lon="45.49559">
        <ele>668.5</ele>
        <time>2018-07-16T03:38:13.000Z</time>
      </trkpt>
      <trkpt lat="41.92072" lon="45.50086">
        <ele>623.1</ele>
        <time>2018-07-16T03:39:13.000Z</time>
      </trkpt>
      <trkpt lat="41.92524" lon="45.50372">
        <ele>588.1</ele>
        <time>2018-07-16T03:40:14.000Z</time>
      </trkpt>
      <trkpt lat="41.92988" lon="45.50673">
        <ele>557.2</ele>
        <time>2018-07-16T03:41:15.000Z</time>
      </trkpt>
      <trkpt lat="41.93461" lon="45.50848">
        <ele>540.9</ele>
        <time>2018-07-16T03:42:16.000Z</time>
      </trkpt>
      <trkpt lat="41.93839" lon="45.51033">
        <ele>518.5</ele>
        <time>2018-07-16T03:43:17.000Z</time>
      </trkpt>
      <trkpt lat="41.94276" lon="45.51358">
        <ele>497.6</ele>
        <time>2018-07-16T03:44:17.000Z</time>
      </trkpt>
      <trkpt lat="41.94398" lon="45.51447">
        <ele>494.8</ele>
        <time>2018-07-16T03:48:23.000Z</time>
      </trkpt>
      <trkpt lat="41.9486" lon="45.518">
        <ele>481.4</ele>
        <time>2018-07-16T03:49:24.000Z</time>
      </trkpt>
      <trkpt lat="41.95318" lon="45.52156">
        <ele>459.9</ele>
        <time>2018-07-16T03:50:25.000Z</time>
      </trkpt>
      <trkpt lat="41.9575" lon="45.52513">
        <ele>442.7</ele>
        <time>2018-07-16T03:51:26.000Z</time>
      </trkpt>
      <trkpt lat="41.95805" lon="45.52995">
        <ele>429.5</ele>
        <time>2018-07-16T03:52:26.000Z</time>
      </trkpt>
      <trkpt lat="41.95795" lon="45.53487">
        <ele>429.2</ele>
        <time>2018-07-16T03:53:26.000Z</time>
      </trkpt>
      <trkpt lat="41.958" lon="45.54009">
        <ele>431.3</ele>
        <time>2018-07-16T03:54:27.000Z</time>
      </trkpt>
      <trkpt lat="41.96056" lon="45.5446">
        <ele>412.5</ele>
        <time>2018-07-16T03:55:28.000Z</time>
      </trkpt>
      <trkpt lat="41.96391" lon="45.54926">
        <ele>398.1</ele>
        <time>2018-07-16T03:56:29.000Z</time>
      </trkpt>
      <trkpt lat="41.96693" lon="45.55343">
        <ele>393.7</ele>
        <time>2018-07-16T03:57:30.000Z</time>
      </trkpt>
      <trkpt lat="41.96985" lon="45.55746">
        <ele>386.2</ele>
        <time>2018-07-16T03:58:31.000Z</time>
      </trkpt>
      <trkpt lat="41.97268" lon="45.56131">
        <ele>380.2</ele>
        <time>2018-07-16T03:59:32.000Z</time>
      </trkpt>
      <trkpt lat="41.97529" lon="45.5648">
        <ele>381.2</ele>
        <time>2018-07-16T04:00:32.000Z</time>
      </trkpt>
      <trkpt lat="41.97778" lon="45.56826">
        <ele>381</ele>
        <time>2018-07-16T04:01:33.000Z</time>
      </trkpt>
      <trkpt lat="41.9803" lon="45.57163">
        <ele>378.9</ele>
        <time>2018-07-16T04:02:34.000Z</time>
      </trkpt>
      <trkpt lat="41.98285" lon="45.57512">
        <ele>374.6</ele>
        <time>2018-07-16T04:03:35.000Z</time>
      </trkpt>
      <trkpt lat="41.98504" lon="45.57816">
        <ele>372.6</ele>
        <time>2018-07-16T04:04:35.000Z</time>
      </trkpt>
      <trkpt lat="41.98699" lon="45.58081">
        <ele>370.9</ele>
        <time>2018-07-16T04:05:36.000Z</time>
      </trkpt>
      <trkpt lat="41.98835" lon="45.58274">
        <ele>370.3</ele>
        <time>2018-07-16T04:06:37.000Z</time>
      </trkpt>
      <trkpt lat="41.99102" lon="45.58505">
        <ele>367.4</ele>
        <time>2018-07-16T04:07:38.000Z</time>
      </trkpt>
      <trkpt lat="41.99359" lon="45.587">
        <ele>369.6</ele>
        <time>2018-07-16T04:08:39.000Z</time>
      </trkpt>
      <trkpt lat="41.99628" lon="45.58905">
        <ele>366.7</ele>
        <time>2018-07-16T04:09:40.000Z</time>
      </trkpt>
      <trkpt lat="41.99884" lon="45.59103">
        <ele>364.4</ele>
        <time>2018-07-16T04:10:41.000Z</time>
      </trkpt>
      <trkpt lat="42.0012" lon="45.59283">
        <ele>368.1</ele>
        <time>2018-07-16T04:11:42.000Z</time>
      </trkpt>
      <trkpt lat="42.00233" lon="45.59399">
        <ele>364.8</ele>
        <time>2018-07-16T04:12:43.000Z</time>
      </trkpt>
      <trkpt lat="42.00231" lon="45.59583">
        <ele>357</ele>
        <time>2018-07-16T04:20:10.000Z</time>
      </trkpt>
      <trkpt lat="42.00135" lon="45.60074">
        <ele>352.1</ele>
        <time>2018-07-16T04:21:11.000Z</time>
      </trkpt>
      <trkpt lat="42.00071" lon="45.60534">
        <ele>356</ele>
        <time>2018-07-16T04:22:12.000Z</time>
      </trkpt>
      <trkpt lat="42.00044" lon="45.60977">
        <ele>359.2</ele>
        <time>2018-07-16T04:23:13.000Z</time>
      </trkpt>
      <trkpt lat="42.00022" lon="45.61384">
        <ele>360.5</ele>
        <time>2018-07-16T04:24:14.000Z</time>
      </trkpt>
      <trkpt lat="42.00002" lon="45.6179">
        <ele>364.2</ele>
        <time>2018-07-16T04:25:15.000Z</time>
      </trkpt>
      <trkpt lat="41.99982" lon="45.62184">
        <ele>367.5</ele>
        <time>2018-07-16T04:26:16.000Z</time>
      </trkpt>
      <trkpt lat="41.99963" lon="45.6255">
        <ele>373.3</ele>
        <time>2018-07-16T04:27:17.000Z</time>
      </trkpt>
      <trkpt lat="41.99947" lon="45.62905">
        <ele>378.9</ele>
        <time>2018-07-16T04:28:18.000Z</time>
      </trkpt>
      <trkpt lat="41.9993" lon="45.63239">
        <ele>382.3</ele>
        <time>2018-07-16T04:29:19.000Z</time>
      </trkpt>
      <trkpt lat="41.99916" lon="45.6357">
        <ele>388.1</ele>
        <time>2018-07-16T04:30:20.000Z</time>
      </trkpt>
      <trkpt lat="41.99901" lon="45.63886">
        <ele>394.5</ele>
        <time>2018-07-16T04:31:21.000Z</time>
      </trkpt>
      <trkpt lat="41.99896" lon="45.64201">
        <ele>399.3</ele>
        <time>2018-07-16T04:32:22.000Z</time>
      </trkpt>
      <trkpt lat="41.99945" lon="45.64509">
        <ele>406.4</ele>
        <time>2018-07-16T04:33:22.000Z</time>
      </trkpt>
      <trkpt lat="41.99992" lon="45.64799">
        <ele>413.2</ele>
        <time>2018-07-16T04:34:23.000Z</time>
      </trkpt>
      <trkpt lat="42.00035" lon="45.65065">
        <ele>420</ele>
        <time>2018-07-16T04:35:24.000Z</time>
      </trkpt>
      <trkpt lat="42.00068" lon="45.6533">
        <ele>422.3</ele>
        <time>2018-07-16T04:36:25.000Z</time>
      </trkpt>
      <trkpt lat="41.99999" lon="45.65492">
        <ele>424.3</ele>
        <time>2018-07-16T04:38:29.000Z</time>
      </trkpt>
      <trkpt lat="42.00016" lon="45.65733">
        <ele>432</ele>
        <time>2018-07-16T04:39:30.000Z</time>
      </trkpt>
      <trkpt lat="42.00088" lon="45.65949">
        <ele>434.9</ele>
        <time>2018-07-16T04:40:31.000Z</time>
      </trkpt>
      <trkpt lat="42.00217" lon="45.66111">
        <ele>442.3</ele>
        <time>2018-07-16T04:41:32.000Z</time>
      </trkpt>
      <trkpt lat="42.00275" lon="45.66304">
        <ele>448.3</ele>
        <time>2018-07-16T04:42:33.000Z</time>
      </trkpt>
      <trkpt lat="42.00167" lon="45.66534">
        <ele>454.4</ele>
        <time>2018-07-16T04:43:34.000Z</time>
      </trkpt>
      <trkpt lat="42.0009" lon="45.6672">
        <ele>457.9</ele>
        <time>2018-07-16T04:44:35.000Z</time>
      </trkpt>
      <trkpt lat="42.00065" lon="45.66919">
        <ele>461.1</ele>
        <time>2018-07-16T04:45:36.000Z</time>
      </trkpt>
      <trkpt lat="42.00027" lon="45.6714">
        <ele>465.2</ele>
        <time>2018-07-16T04:46:37.000Z</time>
      </trkpt>
      <trkpt lat="41.99773" lon="45.67328">
        <ele>459.2</ele>
        <time>2018-07-16T04:47:38.000Z</time>
      </trkpt>
      <trkpt lat="41.9952" lon="45.67498">
        <ele>450.9</ele>
        <time>2018-07-16T04:48:39.000Z</time>
      </trkpt>
      <trkpt lat="41.99164" lon="45.67724">
        <ele>442</ele>
        <time>2018-07-16T04:49:40.000Z</time>
      </trkpt>
      <trkpt lat="41.98809" lon="45.67946">
        <ele>432.2</ele>
        <time>2018-07-16T04:50:41.000Z</time>
      </trkpt>
      <trkpt lat="41.98503" lon="45.68239">
        <ele>427</ele>
        <time>2018-07-16T04:51:42.000Z</time>
      </trkpt>
      <trkpt lat="41.9824" lon="45.68588">
        <ele>426</ele>
        <time>2018-07-16T04:52:43.000Z</time>
      </trkpt>
      <trkpt lat="41.98004" lon="45.68917">
        <ele>427.1</ele>
        <time>2018-07-16T04:53:44.000Z</time>
      </trkpt>
      <trkpt lat="41.97821" lon="45.69282">
        <ele>428.3</ele>
        <time>2018-07-16T04:54:45.000Z</time>
      </trkpt>
      <trkpt lat="41.97614" lon="45.69688">
        <ele>425.8</ele>
        <time>2018-07-16T04:55:46.000Z</time>
      </trkpt>
      <trkpt lat="41.97396" lon="45.70127">
        <ele>421.6</ele>
        <time>2018-07-16T04:56:47.000Z</time>
      </trkpt>
      <trkpt lat="41.97148" lon="45.70624">
        <ele>416.4</ele>
        <time>2018-07-16T04:57:48.000Z</time>
      </trkpt>
      <trkpt lat="41.96886" lon="45.71153">
        <ele>406.5</ele>
        <time>2018-07-16T04:58:49.000Z</time>
      </trkpt>
      <trkpt lat="41.96607" lon="45.71708">
        <ele>394.4</ele>
        <time>2018-07-16T04:59:50.000Z</time>
      </trkpt>
      <trkpt lat="41.96324" lon="45.72278">
        <ele>385.7</ele>
        <time>2018-07-16T05:00:51.000Z</time>
      </trkpt>
      <trkpt lat="41.96044" lon="45.72845">
        <ele>371.8</ele>
        <time>2018-07-16T05:01:52.000Z</time>
      </trkpt>
      <trkpt lat="41.95767" lon="45.73402">
        <ele>367</ele>
        <time>2018-07-16T05:02:52.000Z</time>
      </trkpt>
      <trkpt lat="41.95484" lon="45.73973">
        <ele>355.9</ele>
        <time>2018-07-16T05:03:53.000Z</time>
      </trkpt>
      <trkpt lat="41.95209" lon="45.74526">
        <ele>350.4</ele>
        <time>2018-07-16T05:04:54.000Z</time>
      </trkpt>
      <trkpt lat="41.94954" lon="45.75044">
        <ele>347</ele>
        <time>2018-07-16T05:05:55.000Z</time>
      </trkpt>
      <trkpt lat="41.94725" lon="45.75508">
        <ele>339.9</ele>
        <time>2018-07-16T05:06:56.000Z</time>
      </trkpt>
      <trkpt lat="41.9454" lon="45.75881">
        <ele>342.5</ele>
        <time>2018-07-16T05:07:57.000Z</time>
      </trkpt>
      <trkpt lat="41.94388" lon="45.76195">
        <ele>345.7</ele>
        <time>2018-07-16T05:08:58.000Z</time>
      </trkpt>
      <trkpt lat="41.94261" lon="45.76454">
        <ele>348.2</ele>
        <time>2018-07-16T05:09:59.000Z</time>
      </trkpt>
      <trkpt lat="41.94125" lon="45.76725">
        <ele>352.6</ele>
        <time>2018-07-16T05:10:59.000Z</time>
      </trkpt>
      <trkpt lat="41.93979" lon="45.7704">
        <ele>357.2</ele>
        <time>2018-07-16T05:12:00.000Z</time>
      </trkpt>
      <trkpt lat="41.93831" lon="45.77394">
        <ele>357.2</ele>
        <time>2018-07-16T05:13:01.000Z</time>
      </trkpt>
      <trkpt lat="41.93688" lon="45.77747">
        <ele>362.9</ele>
        <time>2018-07-16T05:14:02.000Z</time>
      </trkpt>
      <trkpt lat="41.93541" lon="45.78102">
        <ele>364.7</ele>
        <time>2018-07-16T05:15:03.000Z</time>
      </trkpt>
      <trkpt lat="41.934" lon="45.78442">
        <ele>370.8</ele>
        <time>2018-07-16T05:16:04.000Z</time>
      </trkpt>
      <trkpt lat="41.9332" lon="45.78781">
        <ele>374.7</ele>
        <time>2018-07-16T05:17:05.000Z</time>
      </trkpt>
      <trkpt lat="41.93247" lon="45.79131">
        <ele>373</ele>
        <time>2018-07-16T05:18:06.000Z</time>
      </trkpt>
      <trkpt lat="41.93155" lon="45.7959">
        <ele>366.6</ele>
        <time>2018-07-16T05:19:07.000Z</time>
      </trkpt>
      <trkpt lat="41.93057" lon="45.80059">
        <ele>362</ele>
        <time>2018-07-16T05:20:08.000Z</time>
      </trkpt>
      <trkpt lat="41.9303" lon="45.80514">
        <ele>364.1</ele>
        <time>2018-07-16T05:21:09.000Z</time>
      </trkpt>
      <trkpt lat="41.93048" lon="45.80922">
        <ele>365.6</ele>
        <time>2018-07-16T05:22:10.000Z</time>
      </trkpt>
      <trkpt lat="41.93066" lon="45.81344">
        <ele>365.8</ele>
        <time>2018-07-16T05:23:10.000Z</time>
      </trkpt>
      <trkpt lat="41.93081" lon="45.81803">
        <ele>370.5</ele>
        <time>2018-07-16T05:24:11.000Z</time>
      </trkpt>
      <trkpt lat="41.93028" lon="45.82248">
        <ele>370.6</ele>
        <time>2018-07-16T05:25:12.000Z</time>
      </trkpt>
      <trkpt lat="41.93121" lon="45.82382">
        <ele>365.5</ele>
        <time>2018-07-16T05:26:23.000Z</time>
      </trkpt>
      <trkpt lat="41.93309" lon="45.82312">
        <ele>372.5</ele>
        <time>2018-07-16T05:27:24.000Z</time>
      </trkpt>
      <trkpt lat="41.93482" lon="45.82248">
        <ele>374.9</ele>
        <time>2018-07-16T05:28:24.000Z</time>
      </trkpt>
      <trkpt lat="41.93639" lon="45.82199">
        <ele>383.3</ele>
        <time>2018-07-16T05:29:25.000Z</time>
      </trkpt>
      <trkpt lat="41.93763" lon="45.82117">
        <ele>378.7</ele>
        <time>2018-07-16T05:31:29.000Z</time>
      </trkpt>
      <trkpt lat="41.93924" lon="45.81932">
        <ele>386.8</ele>
        <time>2018-07-16T05:32:30.000Z</time>
      </trkpt>
      <trkpt lat="41.94072" lon="45.81754">
        <ele>387.7</ele>
        <time>2018-07-16T05:33:31.000Z</time>
      </trkpt>
      <trkpt lat="41.93965" lon="45.81866">
        <ele>393.6</ele>
        <time>2018-07-16T05:35:19.000Z</time>
      </trkpt>
      <trkpt lat="41.93654" lon="45.82174">
        <ele>387.1</ele>
        <time>2018-07-16T05:36:20.000Z</time>
      </trkpt>
      <trkpt lat="41.93334" lon="45.82284">
        <ele>373.1</ele>
        <time>2018-07-16T05:37:21.000Z</time>
      </trkpt>
      <trkpt lat="41.932" lon="45.82341">
        <ele>364.3</ele>
        <time>2018-07-16T06:01:56.000Z</time>
      </trkpt>
      <trkpt lat="41.92968" lon="45.82573">
        <ele>361.1</ele>
        <time>2018-07-16T06:02:57.000Z</time>
      </trkpt>
      <trkpt lat="41.92575" lon="45.82557">
        <ele>351.9</ele>
        <time>2018-07-16T06:03:58.000Z</time>
      </trkpt>
      <trkpt lat="41.92518" lon="45.82959">
        <ele>349.6</ele>
        <time>2018-07-16T06:04:59.000Z</time>
      </trkpt>
      <trkpt lat="41.92356" lon="45.8339">
        <ele>350.8</ele>
        <time>2018-07-16T06:06:00.000Z</time>
      </trkpt>
      <trkpt lat="41.92114" lon="45.83898">
        <ele>339.8</ele>
        <time>2018-07-16T06:07:01.000Z</time>
      </trkpt>
      <trkpt lat="41.91865" lon="45.84405">
        <ele>338</ele>
        <time>2018-07-16T06:08:02.000Z</time>
      </trkpt>
      <trkpt lat="41.91617" lon="45.84897">
        <ele>331.5</ele>
        <time>2018-07-16T06:09:03.000Z</time>
      </trkpt>
      <trkpt lat="41.91367" lon="45.85391">
        <ele>320</ele>
        <time>2018-07-16T06:10:04.000Z</time>
      </trkpt>
      <trkpt lat="41.91097" lon="45.85924">
        <ele>313.6</ele>
        <time>2018-07-16T06:11:05.000Z</time>
      </trkpt>
      <trkpt lat="41.90961" lon="45.86444">
        <ele>302.9</ele>
        <time>2018-07-16T06:12:05.000Z</time>
      </trkpt>
      <trkpt lat="41.91016" lon="45.87053">
        <ele>299.9</ele>
        <time>2018-07-16T06:13:06.000Z</time>
      </trkpt>
      <trkpt lat="41.90963" lon="45.87676">
        <ele>293</ele>
        <time>2018-07-16T06:14:07.000Z</time>
      </trkpt>
      <trkpt lat="41.90855" lon="45.88239">
        <ele>287.4</ele>
        <time>2018-07-16T06:15:08.000Z</time>
      </trkpt>
      <trkpt lat="41.90743" lon="45.88751">
        <ele>285.5</ele>
        <time>2018-07-16T06:16:09.000Z</time>
      </trkpt>
      <trkpt lat="41.90696" lon="45.88954">
        <ele>284.3</ele>
        <time>2018-07-16T06:17:10.000Z</time>
      </trkpt>
      <trkpt lat="41.90691" lon="45.8914">
        <ele>286.8</ele>
        <time>2018-07-16T06:19:58.000Z</time>
      </trkpt>
      <trkpt lat="41.90669" lon="45.89584">
        <ele>285.5</ele>
        <time>2018-07-16T06:20:59.000Z</time>
      </trkpt>
      <trkpt lat="41.90592" lon="45.89992">
        <ele>284.3</ele>
        <time>2018-07-16T06:22:00.000Z</time>
      </trkpt>
      <trkpt lat="41.90517" lon="45.90372">
        <ele>288.2</ele>
        <time>2018-07-16T06:23:01.000Z</time>
      </trkpt>
      <trkpt lat="41.90429" lon="45.90748">
        <ele>290.6</ele>
        <time>2018-07-16T06:24:02.000Z</time>
      </trkpt>
      <trkpt lat="41.90352" lon="45.91089">
        <ele>297.9</ele>
        <time>2018-07-16T06:25:03.000Z</time>
      </trkpt>
      <trkpt lat="41.90272" lon="45.9142">
        <ele>305.8</ele>
        <time>2018-07-16T06:26:04.000Z</time>
      </trkpt>
      <trkpt lat="41.90199" lon="45.91733">
        <ele>311.4</ele>
        <time>2018-07-16T06:27:05.000Z</time>
      </trkpt>
      <trkpt lat="41.9013" lon="45.92029">
        <ele>317.7</ele>
        <time>2018-07-16T06:28:06.000Z</time>
      </trkpt>
      <trkpt lat="41.9005" lon="45.92327">
        <ele>323.2</ele>
        <time>2018-07-16T06:29:07.000Z</time>
      </trkpt>
      <trkpt lat="41.89966" lon="45.9261">
        <ele>328.2</ele>
        <time>2018-07-16T06:30:08.000Z</time>
      </trkpt>
      <trkpt lat="41.89934" lon="45.92925">
        <ele>336.7</ele>
        <time>2018-07-16T06:31:09.000Z</time>
      </trkpt>
      <trkpt lat="41.89916" lon="45.93236">
        <ele>341.7</ele>
        <time>2018-07-16T06:32:10.000Z</time>
      </trkpt>
      <trkpt lat="41.89901" lon="45.93526">
        <ele>346.7</ele>
        <time>2018-07-16T06:33:11.000Z</time>
      </trkpt>
      <trkpt lat="41.89888" lon="45.93781">
        <ele>356.5</ele>
        <time>2018-07-16T06:34:12.000Z</time>
      </trkpt>
      <trkpt lat="41.89874" lon="45.94044">
        <ele>361.3</ele>
        <time>2018-07-16T06:35:13.000Z</time>
      </trkpt>
      <trkpt lat="41.89863" lon="45.94309">
        <ele>365</ele>
        <time>2018-07-16T06:36:14.000Z</time>
      </trkpt>
      <trkpt lat="41.89851" lon="45.94568">
        <ele>372.1</ele>
        <time>2018-07-16T06:37:15.000Z</time>
      </trkpt>
      <trkpt lat="41.8984" lon="45.94833">
        <ele>382.4</ele>
        <time>2018-07-16T06:38:16.000Z</time>
      </trkpt>
      <trkpt lat="41.8983" lon="45.95107">
        <ele>384.4</ele>
        <time>2018-07-16T06:39:17.000Z</time>
      </trkpt>
      <trkpt lat="41.8981" lon="45.95411">
        <ele>381.8</ele>
        <time>2018-07-16T06:40:18.000Z</time>
      </trkpt>
      <trkpt lat="41.898" lon="45.95592">
        <ele>386.2</ele>
        <time>2018-07-16T06:44:53.000Z</time>
      </trkpt>
      <trkpt lat="41.89786" lon="45.95872">
        <ele>391.2</ele>
        <time>2018-07-16T06:45:54.000Z</time>
      </trkpt>
      <trkpt lat="41.89719" lon="45.96112">
        <ele>395.4</ele>
        <time>2018-07-16T06:46:55.000Z</time>
      </trkpt>
      <trkpt lat="41.89637" lon="45.96325">
        <ele>403.3</ele>
        <time>2018-07-16T06:47:56.000Z</time>
      </trkpt>
      <trkpt lat="41.89509" lon="45.96611">
        <ele>404.8</ele>
        <time>2018-07-16T06:48:57.000Z</time>
      </trkpt>
      <trkpt lat="41.89357" lon="45.96964">
        <ele>401.4</ele>
        <time>2018-07-16T06:49:58.000Z</time>
      </trkpt>
      <trkpt lat="41.89178" lon="45.97377">
        <ele>395.3</ele>
        <time>2018-07-16T06:50:59.000Z</time>
      </trkpt>
      <trkpt lat="41.89009" lon="45.97816">
        <ele>390.1</ele>
        <time>2018-07-16T06:52:00.000Z</time>
      </trkpt>
      <trkpt lat="41.88883" lon="45.98107">
        <ele>395.4</ele>
        <time>2018-07-16T06:53:01.000Z</time>
      </trkpt>
      <trkpt lat="41.88671" lon="45.98422">
        <ele>395</ele>
        <time>2018-07-16T06:54:02.000Z</time>
      </trkpt>
      <trkpt lat="41.88559" lon="45.98575">
        <ele>389.6</ele>
        <time>2018-07-16T06:55:03.000Z</time>
      </trkpt>
      <trkpt lat="41.88394" lon="45.98825">
        <ele>383.3</ele>
        <time>2018-07-16T06:56:04.000Z</time>
      </trkpt>
      <trkpt lat="41.88076" lon="45.99303">
        <ele>372.7</ele>
        <time>2018-07-16T06:57:05.000Z</time>
      </trkpt>
      <trkpt lat="41.87761" lon="45.9977">
        <ele>360.3</ele>
        <time>2018-07-16T06:58:05.000Z</time>
      </trkpt>
      <trkpt lat="41.87454" lon="46.00217">
        <ele>347.5</ele>
        <time>2018-07-16T06:59:06.000Z</time>
      </trkpt>
      <trkpt lat="41.87147" lon="46.00676">
        <ele>337.4</ele>
        <time>2018-07-16T07:00:07.000Z</time>
      </trkpt>
      <trkpt lat="41.86818" lon="46.01158">
        <ele>327.3</ele>
        <time>2018-07-16T07:01:08.000Z</time>
      </trkpt>
      <trkpt lat="41.86505" lon="46.01617">
        <ele>316.3</ele>
        <time>2018-07-16T07:02:09.000Z</time>
      </trkpt>
      <trkpt lat="41.86224" lon="46.02031">
        <ele>308.4</ele>
        <time>2018-07-16T07:03:10.000Z</time>
      </trkpt>
      <trkpt lat="41.85929" lon="46.02465">
        <ele>305.1</ele>
        <time>2018-07-16T07:04:11.000Z</time>
      </trkpt>
      <trkpt lat="41.85634" lon="46.02829">
        <ele>300.1</ele>
        <time>2018-07-16T07:05:12.000Z</time>
      </trkpt>
      <trkpt lat="41.85438" lon="46.03168">
        <ele>298.1</ele>
        <time>2018-07-16T07:06:13.000Z</time>
      </trkpt>
      <trkpt lat="41.85351" lon="46.03448">
        <ele>302</ele>
        <time>2018-07-16T07:07:14.000Z</time>
      </trkpt>
      <trkpt lat="41.85268" lon="46.03716">
        <ele>309.4</ele>
        <time>2018-07-16T07:08:15.000Z</time>
      </trkpt>
      <trkpt lat="41.85188" lon="46.03962">
        <ele>312.4</ele>
        <time>2018-07-16T07:09:16.000Z</time>
      </trkpt>
      <trkpt lat="41.85086" lon="46.04322">
        <ele>315.1</ele>
        <time>2018-07-16T07:10:17.000Z</time>
      </trkpt>
      <trkpt lat="41.8498" lon="46.04704">
        <ele>313</ele>
        <time>2018-07-16T07:11:18.000Z</time>
      </trkpt>
      <trkpt lat="41.84888" lon="46.05096">
        <ele>312.8</ele>
        <time>2018-07-16T07:12:19.000Z</time>
      </trkpt>
      <trkpt lat="41.84793" lon="46.05517">
        <ele>311.3</ele>
        <time>2018-07-16T07:13:20.000Z</time>
      </trkpt>
      <trkpt lat="41.84711" lon="46.0589">
        <ele>306.9</ele>
        <time>2018-07-16T07:14:21.000Z</time>
      </trkpt>
      <trkpt lat="41.84655" lon="46.06384">
        <ele>299.6</ele>
        <time>2018-07-16T07:15:22.000Z</time>
      </trkpt>
      <trkpt lat="41.84639" lon="46.06819">
        <ele>302.4</ele>
        <time>2018-07-16T07:16:23.000Z</time>
      </trkpt>
      <trkpt lat="41.8463" lon="46.07005">
        <ele>301.8</ele>
        <time>2018-07-16T07:19:49.000Z</time>
      </trkpt>
      <trkpt lat="41.84594" lon="46.07438">
        <ele>301.2</ele>
        <time>2018-07-16T07:20:50.000Z</time>
      </trkpt>
      <trkpt lat="41.84472" lon="46.07873">
        <ele>295.3</ele>
        <time>2018-07-16T07:21:51.000Z</time>
      </trkpt>
      <trkpt lat="41.84376" lon="46.08289">
        <ele>292.1</ele>
        <time>2018-07-16T07:22:52.000Z</time>
      </trkpt>
      <trkpt lat="41.84268" lon="46.08665">
        <ele>292.1</ele>
        <time>2018-07-16T07:23:53.000Z</time>
      </trkpt>
      <trkpt lat="41.84079" lon="46.08883">
        <ele>300</ele>
        <time>2018-07-16T07:24:54.000Z</time>
      </trkpt>
      <trkpt lat="41.83937" lon="46.09064">
        <ele>301.7</ele>
        <time>2018-07-16T07:25:55.000Z</time>
      </trkpt>
      <trkpt lat="41.83794" lon="46.0929">
        <ele>302.1</ele>
        <time>2018-07-16T07:26:56.000Z</time>
      </trkpt>
      <trkpt lat="41.83682" lon="46.09538">
        <ele>304.2</ele>
        <time>2018-07-16T07:27:57.000Z</time>
      </trkpt>
      <trkpt lat="41.83662" lon="46.0981">
        <ele>310.6</ele>
        <time>2018-07-16T07:28:58.000Z</time>
      </trkpt>
      <trkpt lat="41.83756" lon="46.0994">
        <ele>312.1</ele>
        <time>2018-07-16T07:34:13.000Z</time>
      </trkpt>
      <trkpt lat="41.83891" lon="46.10145">
        <ele>317.5</ele>
        <time>2018-07-16T07:35:14.000Z</time>
      </trkpt>
      <trkpt lat="41.84001" lon="46.1034">
        <ele>324.4</ele>
        <time>2018-07-16T07:36:15.000Z</time>
      </trkpt>
      <trkpt lat="41.83945" lon="46.10621">
        <ele>326.2</ele>
        <time>2018-07-16T07:37:16.000Z</time>
      </trkpt>
      <trkpt lat="41.83911" lon="46.11006">
        <ele>326.5</ele>
        <time>2018-07-16T07:38:17.000Z</time>
      </trkpt>
      <trkpt lat="41.84022" lon="46.11325">
        <ele>331.6</ele>
        <time>2018-07-16T07:39:18.000Z</time>
      </trkpt>
      <trkpt lat="41.84119" lon="46.11603">
        <ele>335.5</ele>
        <time>2018-07-16T07:40:19.000Z</time>
      </trkpt>
      <trkpt lat="41.84208" lon="46.1186">
        <ele>340.3</ele>
        <time>2018-07-16T07:41:20.000Z</time>
      </trkpt>
      <trkpt lat="41.84297" lon="46.1212">
        <ele>343.4</ele>
        <time>2018-07-16T07:42:21.000Z</time>
      </trkpt>
      <trkpt lat="41.84387" lon="46.12395">
        <ele>347.6</ele>
        <time>2018-07-16T07:43:22.000Z</time>
      </trkpt>
      <trkpt lat="41.84428" lon="46.12568">
        <ele>343.1</ele>
        <time>2018-07-16T08:18:19.000Z</time>
      </trkpt>
      <trkpt lat="41.84419" lon="46.12877">
        <ele>340.2</ele>
        <time>2018-07-16T08:19:20.000Z</time>
      </trkpt>
      <trkpt lat="41.8432" lon="46.13179">
        <ele>339.8</ele>
        <time>2018-07-16T08:20:21.000Z</time>
      </trkpt>
      <trkpt lat="41.84227" lon="46.1351">
        <ele>340.1</ele>
        <time>2018-07-16T08:21:22.000Z</time>
      </trkpt>
      <trkpt lat="41.84132" lon="46.1387">
        <ele>341.5</ele>
        <time>2018-07-16T08:22:23.000Z</time>
      </trkpt>
      <trkpt lat="41.84013" lon="46.14268">
        <ele>344.6</ele>
        <time>2018-07-16T08:23:24.000Z</time>
      </trkpt>
      <trkpt lat="41.83906" lon="46.1459">
        <ele>350.1</ele>
        <time>2018-07-16T08:24:25.000Z</time>
      </trkpt>
      <trkpt lat="41.83783" lon="46.1497">
        <ele>346.7</ele>
        <time>2018-07-16T08:25:26.000Z</time>
      </trkpt>
      <trkpt lat="41.83644" lon="46.15355">
        <ele>346.4</ele>
        <time>2018-07-16T08:26:26.000Z</time>
      </trkpt>
      <trkpt lat="41.83518" lon="46.1574">
        <ele>345</ele>
        <time>2018-07-16T08:27:27.000Z</time>
      </trkpt>
      <trkpt lat="41.83414" lon="46.16088">
        <ele>348.3</ele>
        <time>2018-07-16T08:28:28.000Z</time>
      </trkpt>
      <trkpt lat="41.83314" lon="46.16418">
        <ele>347.9</ele>
        <time>2018-07-16T08:29:29.000Z</time>
      </trkpt>
      <trkpt lat="41.83192" lon="46.1676">
        <ele>342.5</ele>
        <time>2018-07-16T08:30:30.000Z</time>
      </trkpt>
      <trkpt lat="41.83133" lon="46.16928">
        <ele>342.2</ele>
        <time>2018-07-16T08:31:30.000Z</time>
      </trkpt>
      <trkpt lat="41.83081" lon="46.171">
        <ele>340.1</ele>
        <time>2018-07-16T08:33:14.000Z</time>
      </trkpt>
      <trkpt lat="41.82994" lon="46.17413">
        <ele>343.8</ele>
        <time>2018-07-16T08:34:15.000Z</time>
      </trkpt>
      <trkpt lat="41.82966" lon="46.17591">
        <ele>357.7</ele>
        <time>2018-07-16T08:35:34.000Z</time>
      </trkpt>
      <trkpt lat="41.83084" lon="46.17683">
        <ele>363.4</ele>
        <time>2018-07-16T08:37:00.000Z</time>
      </trkpt>
      <trkpt lat="41.82965" lon="46.17774">
        <ele>380.7</ele>
        <time>2018-07-16T08:39:01.000Z</time>
      </trkpt>
      <trkpt lat="41.82832" lon="46.17738">
        <ele>393</ele>
        <time>2018-07-16T08:40:33.000Z</time>
      </trkpt>
      <trkpt lat="41.82697" lon="46.17748">
        <ele>396.9</ele>
        <time>2018-07-16T08:42:06.000Z</time>
      </trkpt>
      <trkpt lat="41.82816" lon="46.17836">
        <ele>404.1</ele>
        <time>2018-07-16T08:43:57.000Z</time>
      </trkpt>
      <trkpt lat="41.82808" lon="46.18018">
        <ele>417.3</ele>
        <time>2018-07-16T08:45:09.000Z</time>
      </trkpt>
      <trkpt lat="41.82854" lon="46.18235">
        <ele>411.6</ele>
        <time>2018-07-16T08:46:10.000Z</time>
      </trkpt>
      <trkpt lat="41.8301" lon="46.19007">
        <ele>367.7</ele>
        <time>2018-07-16T08:47:11.000Z</time>
      </trkpt>
      <trkpt lat="41.82728" lon="46.19566">
        <ele>352.2</ele>
        <time>2018-07-16T08:48:12.000Z</time>
      </trkpt>
      <trkpt lat="41.82716" lon="46.19999">
        <ele>352.9</ele>
        <time>2018-07-16T08:49:13.000Z</time>
      </trkpt>
      <trkpt lat="41.82669" lon="46.20369">
        <ele>353.3</ele>
        <time>2018-07-16T08:50:14.000Z</time>
      </trkpt>
      <trkpt lat="41.82631" lon="46.20673">
        <ele>356.3</ele>
        <time>2018-07-16T08:51:15.000Z</time>
      </trkpt>
      <trkpt lat="41.82593" lon="46.20979">
        <ele>357.8</ele>
        <time>2018-07-16T08:52:16.000Z</time>
      </trkpt>
      <trkpt lat="41.82568" lon="46.21318">
        <ele>361.2</ele>
        <time>2018-07-16T08:53:17.000Z</time>
      </trkpt>
      <trkpt lat="41.82555" lon="46.21682">
        <ele>358.5</ele>
        <time>2018-07-16T08:54:18.000Z</time>
      </trkpt>
      <trkpt lat="41.8254" lon="46.22069">
        <ele>358.9</ele>
        <time>2018-07-16T08:55:19.000Z</time>
      </trkpt>
      <trkpt lat="41.82531" lon="46.2246">
        <ele>358.5</ele>
        <time>2018-07-16T08:56:20.000Z</time>
      </trkpt>
      <trkpt lat="41.82521" lon="46.22825">
        <ele>363.7</ele>
        <time>2018-07-16T08:57:21.000Z</time>
      </trkpt>
      <trkpt lat="41.82518" lon="46.23289">
        <ele>359.2</ele>
        <time>2018-07-16T08:58:22.000Z</time>
      </trkpt>
      <trkpt lat="41.82518" lon="46.23612">
        <ele>363.6</ele>
        <time>2018-07-16T08:59:23.000Z</time>
      </trkpt>
      <trkpt lat="41.82517" lon="46.23877">
        <ele>368.8</ele>
        <time>2018-07-16T09:00:24.000Z</time>
      </trkpt>
      <trkpt lat="41.82517" lon="46.24147">
        <ele>376</ele>
        <time>2018-07-16T09:01:25.000Z</time>
      </trkpt>
      <trkpt lat="41.82517" lon="46.24399">
        <ele>383.3</ele>
        <time>2018-07-16T09:02:26.000Z</time>
      </trkpt>
      <trkpt lat="41.82517" lon="46.24582">
        <ele>389.9</ele>
        <time>2018-07-16T09:07:26.000Z</time>
      </trkpt>
      <trkpt lat="41.82518" lon="46.24807">
        <ele>396.7</ele>
        <time>2018-07-16T09:08:27.000Z</time>
      </trkpt>
      <trkpt lat="41.82516" lon="46.2504">
        <ele>402.4</ele>
        <time>2018-07-16T09:09:28.000Z</time>
      </trkpt>
      <trkpt lat="41.82515" lon="46.25276">
        <ele>411.2</ele>
        <time>2018-07-16T09:10:29.000Z</time>
      </trkpt>
      <trkpt lat="41.82515" lon="46.25509">
        <ele>417.7</ele>
        <time>2018-07-16T09:11:30.000Z</time>
      </trkpt>
      <trkpt lat="41.82517" lon="46.25695">
        <ele>418.2</ele>
        <time>2018-07-16T09:13:31.000Z</time>
      </trkpt>
      <trkpt lat="41.82511" lon="46.25931">
        <ele>426.8</ele>
        <time>2018-07-16T09:14:32.000Z</time>
      </trkpt>
      <trkpt lat="41.82507" lon="46.26172">
        <ele>432.2</ele>
        <time>2018-07-16T09:15:33.000Z</time>
      </trkpt>
      <trkpt lat="41.82496" lon="46.26385">
        <ele>437.3</ele>
        <time>2018-07-16T09:16:34.000Z</time>
      </trkpt>
      <trkpt lat="41.82468" lon="46.26594">
        <ele>441.4</ele>
        <time>2018-07-16T09:17:35.000Z</time>
      </trkpt>
      <trkpt lat="41.82448" lon="46.26778">
        <ele>439.9</ele>
        <time>2018-07-16T09:24:39.000Z</time>
      </trkpt>
      <trkpt lat="41.82386" lon="46.27081">
        <ele>441.8</ele>
        <time>2018-07-16T09:25:40.000Z</time>
      </trkpt>
      <trkpt lat="41.823" lon="46.27416">
        <ele>444</ele>
        <time>2018-07-16T09:26:41.000Z</time>
      </trkpt>
      <trkpt lat="41.82147" lon="46.27809">
        <ele>438.7</ele>
        <time>2018-07-16T09:27:42.000Z</time>
      </trkpt>
      <trkpt lat="41.81903" lon="46.28175">
        <ele>428.1</ele>
        <time>2018-07-16T09:28:43.000Z</time>
      </trkpt>
      <trkpt lat="41.81683" lon="46.28452">
        <ele>419.5</ele>
        <time>2018-07-16T09:29:43.000Z</time>
      </trkpt>
      <trkpt lat="41.8159" lon="46.2859">
        <ele>419.4</ele>
        <time>2018-07-16T09:31:18.000Z</time>
      </trkpt>
      <trkpt lat="41.81112" lon="46.28952">
        <ele>396.1</ele>
        <time>2018-07-16T09:32:19.000Z</time>
      </trkpt>
      <trkpt lat="41.8067" lon="46.29357">
        <ele>375.9</ele>
        <time>2018-07-16T09:33:20.000Z</time>
      </trkpt>
      <trkpt lat="41.80387" lon="46.2966">
        <ele>378.4</ele>
        <time>2018-07-16T09:34:21.000Z</time>
      </trkpt>
      <trkpt lat="41.80149" lon="46.29914">
        <ele>384.5</ele>
        <time>2018-07-16T09:35:22.000Z</time>
      </trkpt>
      <trkpt lat="41.79954" lon="46.30123">
        <ele>388.8</ele>
        <time>2018-07-16T09:36:23.000Z</time>
      </trkpt>
      <trkpt lat="41.79729" lon="46.30366">
        <ele>390.3</ele>
        <time>2018-07-16T09:37:24.000Z</time>
      </trkpt>
      <trkpt lat="41.79489" lon="46.30618">
        <ele>391.5</ele>
        <time>2018-07-16T09:38:25.000Z</time>
      </trkpt>
      <trkpt lat="41.79315" lon="46.3081">
        <ele>394</ele>
        <time>2018-07-16T09:39:26.000Z</time>
      </trkpt>
      <trkpt lat="41.79202" lon="46.30916">
        <ele>389.1</ele>
        <time>2018-07-16T09:46:55.000Z</time>
      </trkpt>
      <trkpt lat="41.7906" lon="46.3104">
        <ele>399.8</ele>
        <time>2018-07-16T09:47:56.000Z</time>
      </trkpt>
      <trkpt lat="41.78932" lon="46.31095">
        <ele>393.3</ele>
        <time>2018-07-16T09:51:46.000Z</time>
      </trkpt>
      <trkpt lat="41.78835" lon="46.31222">
        <ele>383.3</ele>
        <time>2018-07-16T10:05:56.000Z</time>
      </trkpt>
      <trkpt lat="41.78759" lon="46.31426">
        <ele>372.2</ele>
        <time>2018-07-16T10:06:57.000Z</time>
      </trkpt>
      <trkpt lat="41.78712" lon="46.31605">
        <ele>369.9</ele>
        <time>2018-07-16T10:08:49.000Z</time>
      </trkpt>
      <trkpt lat="41.78477" lon="46.32279">
        <ele>341.2</ele>
        <time>2018-07-16T10:09:50.000Z</time>
      </trkpt>
      <trkpt lat="41.78339" lon="46.33012">
        <ele>322.6</ele>
        <time>2018-07-16T10:10:51.000Z</time>
      </trkpt>
      <trkpt lat="41.78254" lon="46.33237">
        <ele>314.5</ele>
        <time>2018-07-16T10:11:51.000Z</time>
      </trkpt>
      <trkpt lat="41.78188" lon="46.33397">
        <ele>311.2</ele>
        <time>2018-07-16T10:13:09.000Z</time>
      </trkpt>
      <trkpt lat="41.78038" lon="46.33662">
        <ele>305.5</ele>
        <time>2018-07-16T10:14:10.000Z</time>
      </trkpt>
      <trkpt lat="41.77777" lon="46.34026">
        <ele>299.1</ele>
        <time>2018-07-16T10:15:11.000Z</time>
      </trkpt>
      <trkpt lat="41.7741" lon="46.34271">
        <ele>294.8</ele>
        <time>2018-07-16T10:16:12.000Z</time>
      </trkpt>
      <trkpt lat="41.77032" lon="46.34267">
        <ele>292.9</ele>
        <time>2018-07-16T10:17:13.000Z</time>
      </trkpt>
      <trkpt lat="41.76619" lon="46.34102">
        <ele>279.6</ele>
        <time>2018-07-16T10:18:14.000Z</time>
      </trkpt>
      <trkpt lat="41.76337" lon="46.33983">
        <ele>286.8</ele>
        <time>2018-07-16T10:19:15.000Z</time>
      </trkpt>
      <trkpt lat="41.76167" lon="46.34416">
        <ele>279.1</ele>
        <time>2018-07-16T10:20:16.000Z</time>
      </trkpt>
      <trkpt lat="41.75921" lon="46.34714">
        <ele>277.4</ele>
        <time>2018-07-16T10:21:17.000Z</time>
      </trkpt>
      <trkpt lat="41.75668" lon="46.34927">
        <ele>281.8</ele>
        <time>2018-07-16T10:22:18.000Z</time>
      </trkpt>
      <trkpt lat="41.75452" lon="46.35041">
        <ele>280.1</ele>
        <time>2018-07-16T10:23:19.000Z</time>
      </trkpt>
      <trkpt lat="41.75319" lon="46.35253">
        <ele>285.8</ele>
        <time>2018-07-16T10:24:20.000Z</time>
      </trkpt>
      <trkpt lat="41.75215" lon="46.35463">
        <ele>292.7</ele>
        <time>2018-07-16T10:25:21.000Z</time>
      </trkpt>
      <trkpt lat="41.75125" lon="46.35646">
        <ele>297.7</ele>
        <time>2018-07-16T10:26:22.000Z</time>
      </trkpt>
      <trkpt lat="41.75036" lon="46.35822">
        <ele>307.3</ele>
        <time>2018-07-16T10:27:23.000Z</time>
      </trkpt>
      <trkpt lat="41.74975" lon="46.35987">
        <ele>310.5</ele>
        <time>2018-07-16T10:30:46.000Z</time>
      </trkpt>
      <trkpt lat="41.74938" lon="46.36307">
        <ele>320.2</ele>
        <time>2018-07-16T10:31:47.000Z</time>
      </trkpt>
      <trkpt lat="41.74907" lon="46.36661">
        <ele>317.9</ele>
        <time>2018-07-16T10:32:48.000Z</time>
      </trkpt>
      <trkpt lat="41.74873" lon="46.37021">
        <ele>328.7</ele>
        <time>2018-07-16T10:33:49.000Z</time>
      </trkpt>
      <trkpt lat="41.74846" lon="46.37319">
        <ele>331</ele>
        <time>2018-07-16T10:34:50.000Z</time>
      </trkpt>
      <trkpt lat="41.74813" lon="46.37603">
        <ele>336.5</ele>
        <time>2018-07-16T10:35:51.000Z</time>
      </trkpt>
      <trkpt lat="41.74717" lon="46.37915">
        <ele>333.5</ele>
        <time>2018-07-16T10:36:52.000Z</time>
      </trkpt>
      <trkpt lat="41.74567" lon="46.38317">
        <ele>335.5</ele>
        <time>2018-07-16T10:37:53.000Z</time>
      </trkpt>
      <trkpt lat="41.74404" lon="46.38589">
        <ele>338.2</ele>
        <time>2018-07-16T10:38:54.000Z</time>
      </trkpt>
      <trkpt lat="41.74266" lon="46.3876">
        <ele>345.5</ele>
        <time>2018-07-16T10:39:55.000Z</time>
      </trkpt>
      <trkpt lat="41.74129" lon="46.38888">
        <ele>346.7</ele>
        <time>2018-07-16T10:40:56.000Z</time>
      </trkpt>
      <trkpt lat="41.73982" lon="46.38997">
        <ele>354.5</ele>
        <time>2018-07-16T10:41:57.000Z</time>
      </trkpt>
      <trkpt lat="41.7377" lon="46.3916">
        <ele>355.5</ele>
        <time>2018-07-16T10:42:58.000Z</time>
      </trkpt>
      <trkpt lat="41.73559" lon="46.39317">
        <ele>355.4</ele>
        <time>2018-07-16T10:43:58.000Z</time>
      </trkpt>
      <trkpt lat="41.73329" lon="46.39532">
        <ele>365</ele>
        <time>2018-07-16T10:44:59.000Z</time>
      </trkpt>
      <trkpt lat="41.73181" lon="46.39792">
        <ele>367.4</ele>
        <time>2018-07-16T10:46:00.000Z</time>
      </trkpt>
      <trkpt lat="41.73051" lon="46.40055">
        <ele>366.4</ele>
        <time>2018-07-16T10:47:01.000Z</time>
      </trkpt>
      <trkpt lat="41.72903" lon="46.40317">
        <ele>366.2</ele>
        <time>2018-07-16T10:48:02.000Z</time>
      </trkpt>
      <trkpt lat="41.72799" lon="46.40572">
        <ele>378</ele>
        <time>2018-07-16T10:49:03.000Z</time>
      </trkpt>
      <trkpt lat="41.72694" lon="46.40778">
        <ele>377.3</ele>
        <time>2018-07-16T10:50:04.000Z</time>
      </trkpt>
      <trkpt lat="41.72586" lon="46.40906">
        <ele>374.1</ele>
        <time>2018-07-16T10:51:05.000Z</time>
      </trkpt>
      <trkpt lat="41.72424" lon="46.41062">
        <ele>371.9</ele>
        <time>2018-07-16T10:52:06.000Z</time>
      </trkpt>
      <trkpt lat="41.72266" lon="46.41235">
        <ele>379</ele>
        <time>2018-07-16T10:53:07.000Z</time>
      </trkpt>
      <trkpt lat="41.72161" lon="46.41353">
        <ele>386.2</ele>
        <time>2018-07-16T10:54:16.000Z</time>
      </trkpt>
      <trkpt lat="41.72011" lon="46.41508">
        <ele>379.7</ele>
        <time>2018-07-16T10:55:17.000Z</time>
      </trkpt>
      <trkpt lat="41.71885" lon="46.41616">
        <ele>379.6</ele>
        <time>2018-07-16T10:56:18.000Z</time>
      </trkpt>
      <trkpt lat="41.71957" lon="46.4177">
        <ele>384.2</ele>
        <time>2018-07-16T11:08:39.000Z</time>
      </trkpt>
      <trkpt lat="41.72081" lon="46.41904">
        <ele>392.2</ele>
        <time>2018-07-16T11:09:40.000Z</time>
      </trkpt>
    </trkseg>
  </trk>
</gpx>